sensor_id;sensor_type;location;lat;lon;timestamp;temperature;humidity
41290;DHT22;36117;46.680;11.154;2022-11-15T00:01:42;11.00;83.30
41290;DHT22;36117;46.680;11.154;2022-11-15T00:04:07;11.00;83.20
41290;DHT22;36117;46.680;11.154;2022-11-15T00:06:35;11.00;83.40
41290;DHT22;36117;46.680;11.154;2022-11-15T00:09:02;11.00;83.90
41290;DHT22;36117;46.680;11.154;2022-11-15T00:11:27;10.80;84.40
41290;DHT22;36117;46.680;11.154;2022-11-15T00:13:57;10.80;84.80
41290;DHT22;36117;46.680;11.154;2022-11-15T00:16:24;10.80;84.00
41290;DHT22;36117;46.680;11.154;2022-11-15T00:18:50;10.80;84.10
41290;DHT22;36117;46.680;11.154;2022-11-15T00:21:17;10.80;84.10
41290;DHT22;36117;46.680;11.154;2022-11-15T00:23:43;10.50;83.90
41290;DHT22;36117;46.680;11.154;2022-11-15T00:26:14;10.50;84.40
41290;DHT22;36117;46.680;11.154;2022-11-15T00:28:40;10.40;84.70
41290;DHT22;36117;46.680;11.154;2022-11-15T00:33:32;10.50;85.20
41290;DHT22;36117;46.680;11.154;2022-11-15T00:36:03;10.50;84.30
41290;DHT22;36117;46.680;11.154;2022-11-15T00:38:33;10.40;84.40
41290;DHT22;36117;46.680;11.154;2022-11-15T00:41:00;10.70;84.10
41290;DHT22;36117;46.680;11.154;2022-11-15T00:43:27;10.70;83.70
41290;DHT22;36117;46.680;11.154;2022-11-15T00:45:52;10.70;83.50
41290;DHT22;36117;46.680;11.154;2022-11-15T00:48:18;10.60;83.00
41290;DHT22;36117;46.680;11.154;2022-11-15T00:50:44;10.60;83.50
41290;DHT22;36117;46.680;11.154;2022-11-15T00:53:10;10.60;83.80
41290;DHT22;36117;46.680;11.154;2022-11-15T00:55:36;10.60;83.60
41290;DHT22;36117;46.680;11.154;2022-11-15T00:58:01;10.60;83.70
41290;DHT22;36117;46.680;11.154;2022-11-15T01:00:27;10.60;83.60
41290;DHT22;36117;46.680;11.154;2022-11-15T01:02:53;10.70;83.60
41290;DHT22;36117;46.680;11.154;2022-11-15T01:05:19;10.60;83.10
41290;DHT22;36117;46.680;11.154;2022-11-15T01:07:45;10.50;83.70
41290;DHT22;36117;46.680;11.154;2022-11-15T01:10:11;10.60;83.70
41290;DHT22;36117;46.680;11.154;2022-11-15T01:12:37;10.60;84.20
41290;DHT22;36117;46.680;11.154;2022-11-15T01:15:03;10.70;83.60
41290;DHT22;36117;46.680;11.154;2022-11-15T01:17:30;10.70;83.90
41290;DHT22;36117;46.680;11.154;2022-11-15T01:19:56;10.70;83.10
41290;DHT22;36117;46.680;11.154;2022-11-15T01:22:23;10.50;83.70
41290;DHT22;36117;46.680;11.154;2022-11-15T01:24:51;10.30;85.50
41290;DHT22;36117;46.680;11.154;2022-11-15T01:27:17;10.40;84.90
41290;DHT22;36117;46.680;11.154;2022-11-15T01:29:43;10.30;85.20
41290;DHT22;36117;46.680;11.154;2022-11-15T01:32:09;10.30;85.40
41290;DHT22;36117;46.680;11.154;2022-11-15T01:34:34;10.30;85.80
41290;DHT22;36117;46.680;11.154;2022-11-15T01:37:00;10.40;85.60
41290;DHT22;36117;46.680;11.154;2022-11-15T01:39:27;10.40;85.70
41290;DHT22;36117;46.680;11.154;2022-11-15T01:41:53;10.50;84.80
41290;DHT22;36117;46.680;11.154;2022-11-15T01:46:58;10.40;84.30
41290;DHT22;36117;46.680;11.154;2022-11-15T01:49:27;10.40;84.30
41290;DHT22;36117;46.680;11.154;2022-11-15T01:51:54;10.30;84.70
41290;DHT22;36117;46.680;11.154;2022-11-15T01:54:21;10.40;84.40
41290;DHT22;36117;46.680;11.154;2022-11-15T01:56:55;10.60;84.20
41290;DHT22;36117;46.680;11.154;2022-11-15T01:59:22;10.50;83.90
41290;DHT22;36117;46.680;11.154;2022-11-15T02:01:48;10.60;83.50
41290;DHT22;36117;46.680;11.154;2022-11-15T02:04:27;10.60;83.50
41290;DHT22;36117;46.680;11.154;2022-11-15T02:06:54;10.60;83.60
41290;DHT22;36117;46.680;11.154;2022-11-15T02:09:19;10.40;83.60
41290;DHT22;36117;46.680;11.154;2022-11-15T02:11:46;10.40;84.30
41290;DHT22;36117;46.680;11.154;2022-11-15T02:14:14;10.30;83.70
41290;DHT22;36117;46.680;11.154;2022-11-15T02:17:07;10.40;84.10
41290;DHT22;36117;46.680;11.154;2022-11-15T02:29:19;10.20;84.50
41290;DHT22;36117;46.680;11.154;2022-11-15T02:32:10;10.20;85.30
41290;DHT22;36117;46.680;11.154;2022-11-15T02:35:10;10.30;85.00
41290;DHT22;36117;46.680;11.154;2022-11-15T02:37:49;10.20;85.50
41290;DHT22;36117;46.680;11.154;2022-11-15T02:40:45;10.10;86.00
41290;DHT22;36117;46.680;11.154;2022-11-15T02:43:21;10.00;86.00
41290;DHT22;36117;46.680;11.154;2022-11-15T02:46:24;10.00;85.40
41290;DHT22;36117;46.680;11.154;2022-11-15T02:49:13;10.00;85.20
41290;DHT22;36117;46.680;11.154;2022-11-15T02:51:41;10.00;85.20
41290;DHT22;36117;46.680;11.154;2022-11-15T02:54:17;9.80;85.00
41290;DHT22;36117;46.680;11.154;2022-11-15T02:56:45;9.80;85.40
41290;DHT22;36117;46.680;11.154;2022-11-15T03:04:53;9.80;85.00
41290;DHT22;36117;46.680;11.154;2022-11-15T03:07:42;9.90;84.40
41290;DHT22;36117;46.680;11.154;2022-11-15T03:10:15;10.00;84.30
41290;DHT22;36117;46.680;11.154;2022-11-15T03:12:56;10.00;83.40
41290;DHT22;36117;46.680;11.154;2022-11-15T03:15:28;10.10;83.70
41290;DHT22;36117;46.680;11.154;2022-11-15T03:18:05;10.20;83.70
41290;DHT22;36117;46.680;11.154;2022-11-15T03:20:35;10.40;83.20
41290;DHT22;36117;46.680;11.154;2022-11-15T03:23:06;10.30;83.40
41290;DHT22;36117;46.680;11.154;2022-11-15T03:25:34;10.30;83.10
41290;DHT22;36117;46.680;11.154;2022-11-15T03:28:05;10.30;82.70
41290;DHT22;36117;46.680;11.154;2022-11-15T03:30:34;10.30;83.20
41290;DHT22;36117;46.680;11.154;2022-11-15T03:33:02;10.40;83.50
41290;DHT22;36117;46.680;11.154;2022-11-15T03:35:35;10.50;82.80
41290;DHT22;36117;46.680;11.154;2022-11-15T03:38:11;10.40;82.00
41290;DHT22;36117;46.680;11.154;2022-11-15T03:46:36;10.20;83.40
41290;DHT22;36117;46.680;11.154;2022-11-15T03:48:44;10.20;83.60
41290;DHT22;36117;46.680;11.154;2022-11-15T03:51:12;10.00;84.00
41290;DHT22;36117;46.680;11.154;2022-11-15T03:53:40;9.80;84.60
41290;DHT22;36117;46.680;11.154;2022-11-15T03:56:06;9.90;85.40
41290;DHT22;36117;46.680;11.154;2022-11-15T03:58:32;9.90;84.80
41290;DHT22;36117;46.680;11.154;2022-11-15T04:00:58;10.10;84.10
41290;DHT22;36117;46.680;11.154;2022-11-15T04:03:25;10.10;83.70
41290;DHT22;36117;46.680;11.154;2022-11-15T04:05:51;10.20;83.70
41290;DHT22;36117;46.680;11.154;2022-11-15T04:08:17;9.90;83.40
41290;DHT22;36117;46.680;11.154;2022-11-15T04:10:43;9.80;84.20
41290;DHT22;36117;46.680;11.154;2022-11-15T04:13:10;9.90;84.50
41290;DHT22;36117;46.680;11.154;2022-11-15T04:15:36;9.90;84.20
41290;DHT22;36117;46.680;11.154;2022-11-15T04:18:02;10.10;84.00
41290;DHT22;36117;46.680;11.154;2022-11-15T04:20:29;10.20;83.00
41290;DHT22;36117;46.680;11.154;2022-11-15T04:23:22;10.40;82.50
41290;DHT22;36117;46.680;11.154;2022-11-15T04:26:11;10.50;82.00
41290;DHT22;36117;46.680;11.154;2022-11-15T04:28:38;10.50;81.70
41290;DHT22;36117;46.680;11.154;2022-11-15T04:31:24;10.50;81.60
41290;DHT22;36117;46.680;11.154;2022-11-15T04:33:50;10.70;81.50
41290;DHT22;36117;46.680;11.154;2022-11-15T04:36:16;10.60;81.80
41290;DHT22;36117;46.680;11.154;2022-11-15T04:39:00;10.70;81.70
41290;DHT22;36117;46.680;11.154;2022-11-15T04:41:26;10.90;81.00
41290;DHT22;36117;46.680;11.154;2022-11-15T04:43:51;10.90;80.40
41290;DHT22;36117;46.680;11.154;2022-11-15T04:46:17;11.10;80.30
41290;DHT22;36117;46.680;11.154;2022-11-15T04:48:43;10.90;79.70
41290;DHT22;36117;46.680;11.154;2022-11-15T04:51:09;11.00;80.90
41290;DHT22;36117;46.680;11.154;2022-11-15T04:53:35;11.00;80.10
41290;DHT22;36117;46.680;11.154;2022-11-15T04:56:01;11.10;79.80
41290;DHT22;36117;46.680;11.154;2022-11-15T04:58:27;11.00;80.50
41290;DHT22;36117;46.680;11.154;2022-11-15T05:00:53;10.70;80.50
41290;DHT22;36117;46.680;11.154;2022-11-15T05:03:18;10.80;80.90
41290;DHT22;36117;46.680;11.154;2022-11-15T05:06:03;10.90;80.90
41290;DHT22;36117;46.680;11.154;2022-11-15T05:08:28;10.80;82.10
41290;DHT22;36117;46.680;11.154;2022-11-15T05:10:54;10.70;81.30
41290;DHT22;36117;46.680;11.154;2022-11-15T05:13:20;10.80;81.20
41290;DHT22;36117;46.680;11.154;2022-11-15T05:15:47;10.50;80.80
41290;DHT22;36117;46.680;11.154;2022-11-15T05:18:12;10.60;80.60
41290;DHT22;36117;46.680;11.154;2022-11-15T05:20:38;10.60;80.30
41290;DHT22;36117;46.680;11.154;2022-11-15T05:23:07;10.40;80.90
41290;DHT22;36117;46.680;11.154;2022-11-15T05:25:32;10.20;81.40
41290;DHT22;36117;46.680;11.154;2022-11-15T05:27:58;10.30;81.60
41290;DHT22;36117;46.680;11.154;2022-11-15T05:30:24;10.20;81.40
41290;DHT22;36117;46.680;11.154;2022-11-15T05:32:50;10.20;81.50
41290;DHT22;36117;46.680;11.154;2022-11-15T05:35:29;10.30;81.70
41290;DHT22;36117;46.680;11.154;2022-11-15T05:37:56;10.50;81.30
41290;DHT22;36117;46.680;11.154;2022-11-15T05:40:22;10.70;80.60
41290;DHT22;36117;46.680;11.154;2022-11-15T05:42:49;10.80;80.50
41290;DHT22;36117;46.680;11.154;2022-11-15T05:45:15;10.90;79.90
41290;DHT22;36117;46.680;11.154;2022-11-15T05:47:42;10.80;79.10
41290;DHT22;36117;46.680;11.154;2022-11-15T05:50:12;10.40;79.60
41290;DHT22;36117;46.680;11.154;2022-11-15T05:52:40;10.30;80.90
41290;DHT22;36117;46.680;11.154;2022-11-15T05:55:07;10.60;81.00
41290;DHT22;36117;46.680;11.154;2022-11-15T05:57:34;10.90;80.20
41290;DHT22;36117;46.680;11.154;2022-11-15T06:00:00;11.20;79.80
41290;DHT22;36117;46.680;11.154;2022-11-15T06:02:26;11.40;78.70
41290;DHT22;36117;46.680;11.154;2022-11-15T06:04:51;11.30;79.30
41290;DHT22;36117;46.680;11.154;2022-11-15T06:07:17;11.30;78.80
41290;DHT22;36117;46.680;11.154;2022-11-15T06:09:43;11.40;79.00
41290;DHT22;36117;46.680;11.154;2022-11-15T06:12:08;11.40;79.10
41290;DHT22;36117;46.680;11.154;2022-11-15T06:14:34;11.10;79.50
41290;DHT22;36117;46.680;11.154;2022-11-15T06:17:00;11.10;79.70
41290;DHT22;36117;46.680;11.154;2022-11-15T06:19:26;10.90;79.90
41290;DHT22;36117;46.680;11.154;2022-11-15T06:21:52;10.80;79.20
41290;DHT22;36117;46.680;11.154;2022-11-15T06:24:18;10.60;79.60
41290;DHT22;36117;46.680;11.154;2022-11-15T06:26:43;10.30;79.90
41290;DHT22;36117;46.680;11.154;2022-11-15T06:29:09;10.40;79.50
41290;DHT22;36117;46.680;11.154;2022-11-15T06:31:35;10.20;79.90
41290;DHT22;36117;46.680;11.154;2022-11-15T06:34:01;10.30;80.20
41290;DHT22;36117;46.680;11.154;2022-11-15T06:36:26;10.30;79.80
41290;DHT22;36117;46.680;11.154;2022-11-15T06:38:52;10.30;80.00
41290;DHT22;36117;46.680;11.154;2022-11-15T06:41:18;10.10;79.80
41290;DHT22;36117;46.680;11.154;2022-11-15T06:43:44;10.30;80.10
41290;DHT22;36117;46.680;11.154;2022-11-15T06:46:10;10.10;80.30
41290;DHT22;36117;46.680;11.154;2022-11-15T06:48:35;10.20;80.90
41290;DHT22;36117;46.680;11.154;2022-11-15T06:51:03;10.40;79.90
41290;DHT22;36117;46.680;11.154;2022-11-15T06:53:30;10.50;79.30
41290;DHT22;36117;46.680;11.154;2022-11-15T06:56:01;10.80;79.20
41290;DHT22;36117;46.680;11.154;2022-11-15T06:58:27;11.00;78.90
41290;DHT22;36117;46.680;11.154;2022-11-15T07:00:53;11.10;78.30
41290;DHT22;36117;46.680;11.154;2022-11-15T07:03:20;11.00;77.80
41290;DHT22;36117;46.680;11.154;2022-11-15T07:05:53;11.00;78.30
41290;DHT22;36117;46.680;11.154;2022-11-15T07:08:20;11.00;77.80
41290;DHT22;36117;46.680;11.154;2022-11-15T07:10:46;10.80;78.00
41290;DHT22;36117;46.680;11.154;2022-11-15T07:13:12;10.90;78.20
41290;DHT22;36117;46.680;11.154;2022-11-15T07:15:38;11.10;77.40
41290;DHT22;36117;46.680;11.154;2022-11-15T07:18:03;11.00;77.20
41290;DHT22;36117;46.680;11.154;2022-11-15T07:20:29;10.90;77.50
41290;DHT22;36117;46.680;11.154;2022-11-15T07:23:03;11.00;77.90
41290;DHT22;36117;46.680;11.154;2022-11-15T07:25:29;11.00;76.90
41290;DHT22;36117;46.680;11.154;2022-11-15T07:27:59;11.10;77.10
41290;DHT22;36117;46.680;11.154;2022-11-15T07:30:26;11.00;76.90
41290;DHT22;36117;46.680;11.154;2022-11-15T07:32:56;11.00;76.80
41290;DHT22;36117;46.680;11.154;2022-11-15T07:35:23;11.10;77.00
41290;DHT22;36117;46.680;11.154;2022-11-15T07:38:02;11.50;76.40
41290;DHT22;36117;46.680;11.154;2022-11-15T07:40:30;11.40;75.10
41290;DHT22;36117;46.680;11.154;2022-11-15T07:43:02;11.30;75.30
41290;DHT22;36117;46.680;11.154;2022-11-15T07:45:28;11.30;76.00
41290;DHT22;36117;46.680;11.154;2022-11-15T07:47:54;11.10;76.00
41290;DHT22;36117;46.680;11.154;2022-11-15T07:50:22;11.10;76.80
41290;DHT22;36117;46.680;11.154;2022-11-15T07:52:53;11.20;76.80
41290;DHT22;36117;46.680;11.154;2022-11-15T07:55:19;11.20;76.30
41290;DHT22;36117;46.680;11.154;2022-11-15T07:57:45;11.30;75.90
41290;DHT22;36117;46.680;11.154;2022-11-15T08:00:11;11.60;75.70
41290;DHT22;36117;46.680;11.154;2022-11-15T08:02:37;11.60;75.10
41290;DHT22;36117;46.680;11.154;2022-11-15T08:05:03;11.60;74.90
41290;DHT22;36117;46.680;11.154;2022-11-15T08:07:30;12.00;74.40
41290;DHT22;36117;46.680;11.154;2022-11-15T08:09:57;12.10;73.60
41290;DHT22;36117;46.680;11.154;2022-11-15T08:12:23;11.90;74.10
41290;DHT22;36117;46.680;11.154;2022-11-15T08:14:49;11.90;73.90
41290;DHT22;36117;46.680;11.154;2022-11-15T08:17:15;12.00;73.60
41290;DHT22;36117;46.680;11.154;2022-11-15T08:19:40;11.90;73.20
41290;DHT22;36117;46.680;11.154;2022-11-15T08:22:07;11.80;73.60
41290;DHT22;36117;46.680;11.154;2022-11-15T08:24:33;12.00;73.10
41290;DHT22;36117;46.680;11.154;2022-11-15T08:26:59;12.20;73.30
41290;DHT22;36117;46.680;11.154;2022-11-15T08:29:25;12.20;72.90
41290;DHT22;36117;46.680;11.154;2022-11-15T08:31:55;12.40;72.70
41290;DHT22;36117;46.680;11.154;2022-11-15T08:34:21;12.50;72.10
41290;DHT22;36117;46.680;11.154;2022-11-15T08:36:47;12.70;71.20
41290;DHT22;36117;46.680;11.154;2022-11-15T08:39:13;12.80;71.20
41290;DHT22;36117;46.680;11.154;2022-11-15T08:41:39;13.20;70.60
41290;DHT22;36117;46.680;11.154;2022-11-15T08:44:05;13.30;69.60
41290;DHT22;36117;46.680;11.154;2022-11-15T08:46:30;13.20;69.70
41290;DHT22;36117;46.680;11.154;2022-11-15T08:48:56;13.20;70.40
41290;DHT22;36117;46.680;11.154;2022-11-15T08:51:22;13.30;70.10
41290;DHT22;36117;46.680;11.154;2022-11-15T08:53:48;13.50;69.30
41290;DHT22;36117;46.680;11.154;2022-11-15T08:56:14;13.00;69.30
41290;DHT22;36117;46.680;11.154;2022-11-15T08:58:40;13.50;69.10
41290;DHT22;36117;46.680;11.154;2022-11-15T09:01:15;13.70;69.40
41290;DHT22;36117;46.680;11.154;2022-11-15T09:03:41;13.90;67.70
41290;DHT22;36117;46.680;11.154;2022-11-15T09:06:07;13.90;67.50
41290;DHT22;36117;46.680;11.154;2022-11-15T09:08:34;13.90;67.60
41290;DHT22;36117;46.680;11.154;2022-11-15T09:11:06;14.10;67.90
41290;DHT22;36117;46.680;11.154;2022-11-15T09:13:33;14.20;67.40
41290;DHT22;36117;46.680;11.154;2022-11-15T09:16:00;14.10;68.20
41290;DHT22;36117;46.680;11.154;2022-11-15T09:18:26;14.30;68.60
41290;DHT22;36117;46.680;11.154;2022-11-15T09:20:58;14.50;67.70
41290;DHT22;36117;46.680;11.154;2022-11-15T09:23:25;14.70;66.70
41290;DHT22;36117;46.680;11.154;2022-11-15T09:25:52;14.80;66.00
41290;DHT22;36117;46.680;11.154;2022-11-15T09:28:23;15.10;66.00
41290;DHT22;36117;46.680;11.154;2022-11-15T09:30:49;15.70;64.60
41290;DHT22;36117;46.680;11.154;2022-11-15T09:33:14;16.00;63.90
41290;DHT22;36117;46.680;11.154;2022-11-15T09:35:40;16.40;62.50
41290;DHT22;36117;46.680;11.154;2022-11-15T09:38:06;16.90;60.30
41290;DHT22;36117;46.680;11.154;2022-11-15T09:40:33;17.30;59.60
41290;DHT22;36117;46.680;11.154;2022-11-15T09:48:48;16.70;59.40
41290;DHT22;36117;46.680;11.154;2022-11-15T09:54:04;17.30;59.20
41290;DHT22;36117;46.680;11.154;2022-11-15T09:56:33;18.00;57.40
41290;DHT22;36117;46.680;11.154;2022-11-15T10:01:44;19.50;54.00
41290;DHT22;36117;46.680;11.154;2022-11-15T10:04:10;20.70;52.30
41290;DHT22;36117;46.680;11.154;2022-11-15T10:06:41;21.70;48.00
41290;DHT22;36117;46.680;11.154;2022-11-15T10:09:12;22.80;44.40
41290;DHT22;36117;46.680;11.154;2022-11-15T10:11:40;23.10;43.30
41290;DHT22;36117;46.680;11.154;2022-11-15T10:14:13;23.50;41.70
41290;DHT22;36117;46.680;11.154;2022-11-15T10:24:38;25.50;36.70
41290;DHT22;36117;46.680;11.154;2022-11-15T10:27:13;26.70;36.00
41290;DHT22;36117;46.680;11.154;2022-11-15T10:29:52;26.20;35.70
41290;DHT22;36117;46.680;11.154;2022-11-15T10:32:20;27.70;34.50
41290;DHT22;36117;46.680;11.154;2022-11-15T10:34:48;26.90;33.90
41290;DHT22;36117;46.680;11.154;2022-11-15T10:37:14;27.00;34.50
41290;DHT22;36117;46.680;11.154;2022-11-15T10:39:40;27.10;34.40
41290;DHT22;36117;46.680;11.154;2022-11-15T10:42:26;26.90;34.10
41290;DHT22;36117;46.680;11.154;2022-11-15T10:44:53;26.50;34.00
41290;DHT22;36117;46.680;11.154;2022-11-15T10:47:27;26.20;34.40
41290;DHT22;36117;46.680;11.154;2022-11-15T10:50:03;26.90;34.90
41290;DHT22;36117;46.680;11.154;2022-11-15T10:52:31;27.40;34.10
41290;DHT22;36117;46.680;11.154;2022-11-15T10:57:38;27.90;33.30
41290;DHT22;36117;46.680;11.154;2022-11-15T11:00:35;27.90;32.80
41290;DHT22;36117;46.680;11.154;2022-11-15T11:03:28;27.70;32.30
41290;DHT22;36117;46.680;11.154;2022-11-15T11:08:37;25.90;34.60
41290;DHT22;36117;46.680;11.154;2022-11-15T11:11:04;24.60;36.50
41290;DHT22;36117;46.680;11.154;2022-11-15T11:16:22;24.20;37.20
41290;DHT22;36117;46.680;11.154;2022-11-15T11:29:52;22.50;40.30
41290;DHT22;36117;46.680;11.154;2022-11-15T11:35:13;22.30;40.60
41290;DHT22;36117;46.680;11.154;2022-11-15T11:37:50;22.70;40.90
41290;DHT22;36117;46.680;11.154;2022-11-15T11:40:32;22.00;40.20
41290;DHT22;36117;46.680;11.154;2022-11-15T11:46:04;20.90;42.60
41290;DHT22;36117;46.680;11.154;2022-11-15T11:52:00;20.50;42.60
41290;DHT22;36117;46.680;11.154;2022-11-15T11:56:50;19.80;44.80
41290;DHT22;36117;46.680;11.154;2022-11-15T12:02:39;19.40;45.40
41290;DHT22;36117;46.680;11.154;2022-11-15T12:05:34;19.60;46.20
41290;DHT22;36117;46.680;11.154;2022-11-15T12:11:23;18.80;46.50
41290;DHT22;36117;46.680;11.154;2022-11-15T12:14:01;19.00;46.90
41290;DHT22;36117;46.680;11.154;2022-11-15T12:16:30;18.90;47.80
41290;DHT22;36117;46.680;11.154;2022-11-15T12:19:00;19.00;48.20
41290;DHT22;36117;46.680;11.154;2022-11-15T12:24:19;18.70;49.30
41290;DHT22;36117;46.680;11.154;2022-11-15T12:27:15;18.90;49.50
41290;DHT22;36117;46.680;11.154;2022-11-15T12:29:46;19.00;49.30
41290;DHT22;36117;46.680;11.154;2022-11-15T12:32:33;18.70;50.20
41290;DHT22;36117;46.680;11.154;2022-11-15T12:35:02;18.50;50.10
41290;DHT22;36117;46.680;11.154;2022-11-15T12:42:41;18.50;50.60
41290;DHT22;36117;46.680;11.154;2022-11-15T12:47:53;18.90;50.50
41290;DHT22;36117;46.680;11.154;2022-11-15T13:01:08;18.80;50.20
41290;DHT22;36117;46.680;11.154;2022-11-15T13:03:34;18.80;49.70
41290;DHT22;36117;46.680;11.154;2022-11-15T13:06:03;18.90;49.70
41290;DHT22;36117;46.680;11.154;2022-11-15T13:08:39;19.00;49.80
41290;DHT22;36117;46.680;11.154;2022-11-15T13:11:43;18.70;48.60
41290;DHT22;36117;46.680;11.154;2022-11-15T13:14:37;18.70;49.70
41290;DHT22;36117;46.680;11.154;2022-11-15T13:17:36;18.60;49.40
41290;DHT22;36117;46.680;11.154;2022-11-15T13:35:50;18.30;50.80
41290;DHT22;36117;46.680;11.154;2022-11-15T13:38:27;18.20;51.20
41290;DHT22;36117;46.680;11.154;2022-11-15T13:40:55;18.10;50.50
41290;DHT22;36117;46.680;11.154;2022-11-15T13:48:36;18.10;51.00
41290;DHT22;36117;46.680;11.154;2022-11-15T13:51:05;18.00;51.50
41290;DHT22;36117;46.680;11.154;2022-11-15T13:53:33;17.80;52.10
41290;DHT22;36117;46.680;11.154;2022-11-15T13:56:01;17.80;52.10
41290;DHT22;36117;46.680;11.154;2022-11-15T13:58:29;17.80;52.20
41290;DHT22;36117;46.680;11.154;2022-11-15T14:01:01;17.90;52.50
41290;DHT22;36117;46.680;11.154;2022-11-15T14:03:30;17.90;52.70
41290;DHT22;36117;46.680;11.154;2022-11-15T14:08:32;17.60;53.00
41290;DHT22;36117;46.680;11.154;2022-11-15T14:11:17;17.50;53.10
41290;DHT22;36117;46.680;11.154;2022-11-15T14:16:43;17.30;53.70
41290;DHT22;36117;46.680;11.154;2022-11-15T14:24:36;17.40;54.60
41290;DHT22;36117;46.680;11.154;2022-11-15T14:27:27;17.30;54.50
41290;DHT22;36117;46.680;11.154;2022-11-15T14:29:54;17.10;54.60
41290;DHT22;36117;46.680;11.154;2022-11-15T14:32:26;17.10;55.00
41290;DHT22;36117;46.680;11.154;2022-11-15T14:34:56;17.10;54.80
41290;DHT22;36117;46.680;11.154;2022-11-15T14:37:25;17.10;55.30
41290;DHT22;36117;46.680;11.154;2022-11-15T14:39:52;17.20;54.80
41290;DHT22;36117;46.680;11.154;2022-11-15T14:42:18;17.30;55.00
41290;DHT22;36117;46.680;11.154;2022-11-15T14:44:45;17.40;54.80
41290;DHT22;36117;46.680;11.154;2022-11-15T14:47:11;17.40;54.60
41290;DHT22;36117;46.680;11.154;2022-11-15T14:49:37;17.30;54.50
41290;DHT22;36117;46.680;11.154;2022-11-15T14:52:21;17.30;54.90
41290;DHT22;36117;46.680;11.154;2022-11-15T14:54:48;16.90;55.30
41290;DHT22;36117;46.680;11.154;2022-11-15T14:57:14;16.40;56.90
41290;DHT22;36117;46.680;11.154;2022-11-15T14:59:39;16.30;57.70
41290;DHT22;36117;46.680;11.154;2022-11-15T15:02:18;16.40;57.60
41290;DHT22;36117;46.680;11.154;2022-11-15T15:04:44;16.30;58.10
41290;DHT22;36117;46.680;11.154;2022-11-15T15:07:10;15.80;58.90
41290;DHT22;36117;46.680;11.154;2022-11-15T15:09:36;15.70;59.40
41290;DHT22;36117;46.680;11.154;2022-11-15T15:12:01;15.40;60.00
41290;DHT22;36117;46.680;11.154;2022-11-15T15:14:27;15.60;60.30
41290;DHT22;36117;46.680;11.154;2022-11-15T15:16:53;15.70;60.10
41290;DHT22;36117;46.680;11.154;2022-11-15T15:19:18;15.90;60.30
41290;DHT22;36117;46.680;11.154;2022-11-15T15:21:44;16.20;60.60
41290;DHT22;36117;46.680;11.154;2022-11-15T15:24:14;16.20;59.10
41290;DHT22;36117;46.680;11.154;2022-11-15T15:26:42;16.10;59.40
41290;DHT22;36117;46.680;11.154;2022-11-15T15:29:09;16.10;59.60
41290;DHT22;36117;46.680;11.154;2022-11-15T15:31:35;16.10;60.50
41290;DHT22;36117;46.680;11.154;2022-11-15T15:34:01;16.20;60.00
41290;DHT22;36117;46.680;11.154;2022-11-15T15:36:26;16.10;60.60
41290;DHT22;36117;46.680;11.154;2022-11-15T15:38:52;16.10;60.70
41290;DHT22;36117;46.680;11.154;2022-11-15T15:41:18;16.20;60.80
41290;DHT22;36117;46.680;11.154;2022-11-15T15:43:44;16.20;60.80
41290;DHT22;36117;46.680;11.154;2022-11-15T15:46:17;16.10;60.90
41290;DHT22;36117;46.680;11.154;2022-11-15T15:48:44;16.10;61.20
41290;DHT22;36117;46.680;11.154;2022-11-15T15:51:10;16.10;61.20
41290;DHT22;36117;46.680;11.154;2022-11-15T15:53:36;16.10;61.70
41290;DHT22;36117;46.680;11.154;2022-11-15T15:56:02;16.10;61.60
41290;DHT22;36117;46.680;11.154;2022-11-15T15:58:28;15.80;62.50
41290;DHT22;36117;46.680;11.154;2022-11-15T16:00:53;15.80;62.50
41290;DHT22;36117;46.680;11.154;2022-11-15T16:03:19;15.90;62.90
41290;DHT22;36117;46.680;11.154;2022-11-15T16:05:45;16.00;63.30
41290;DHT22;36117;46.680;11.154;2022-11-15T16:08:22;15.90;63.40
41290;DHT22;36117;46.680;11.154;2022-11-15T16:10:48;15.60;63.50
41290;DHT22;36117;46.680;11.154;2022-11-15T16:13:14;15.70;63.50
41290;DHT22;36117;46.680;11.154;2022-11-15T16:15:40;15.80;63.40
41290;DHT22;36117;46.680;11.154;2022-11-15T16:18:14;15.80;63.10
41290;DHT22;36117;46.680;11.154;2022-11-15T16:20:45;15.80;63.60
41290;DHT22;36117;46.680;11.154;2022-11-15T16:23:13;15.70;63.80
41290;DHT22;36117;46.680;11.154;2022-11-15T16:25:49;15.60;63.30
41290;DHT22;36117;46.680;11.154;2022-11-15T16:28:25;15.70;63.70
41290;DHT22;36117;46.680;11.154;2022-11-15T16:31:07;15.30;63.70
41290;DHT22;36117;46.680;11.154;2022-11-15T16:33:34;14.90;66.20
41290;DHT22;36117;46.680;11.154;2022-11-15T16:36:00;15.20;68.00
41290;DHT22;36117;46.680;11.154;2022-11-15T16:38:26;15.00;68.30
41290;DHT22;36117;46.680;11.154;2022-11-15T16:40:52;15.10;67.70
41290;DHT22;36117;46.680;11.154;2022-11-15T16:43:18;15.10;67.80
41290;DHT22;36117;46.680;11.154;2022-11-15T16:45:43;15.30;67.20
41290;DHT22;36117;46.680;11.154;2022-11-15T16:48:23;15.30;67.30
41290;DHT22;36117;46.680;11.154;2022-11-15T16:50:50;15.40;67.50
41290;DHT22;36117;46.680;11.154;2022-11-15T16:53:15;15.50;66.70
41290;DHT22;36117;46.680;11.154;2022-11-15T16:55:41;15.40;66.80
41290;DHT22;36117;46.680;11.154;2022-11-15T16:58:08;15.50;66.60
41290;DHT22;36117;46.680;11.154;2022-11-15T17:00:34;15.50;66.40
41290;DHT22;36117;46.680;11.154;2022-11-15T17:03:00;15.50;66.60
41290;DHT22;36117;46.680;11.154;2022-11-15T17:05:28;15.60;66.40
41290;DHT22;36117;46.680;11.154;2022-11-15T17:07:54;15.60;66.50
41290;DHT22;36117;46.680;11.154;2022-11-15T17:10:24;15.40;66.50
41290;DHT22;36117;46.680;11.154;2022-11-15T17:12:50;15.30;66.90
41290;DHT22;36117;46.680;11.154;2022-11-15T17:15:16;15.20;67.40
41290;DHT22;36117;46.680;11.154;2022-11-15T17:17:42;15.30;68.20
41290;DHT22;36117;46.680;11.154;2022-11-15T17:20:16;15.40;67.10
41290;DHT22;36117;46.680;11.154;2022-11-15T17:22:42;15.30;67.20
41290;DHT22;36117;46.680;11.154;2022-11-15T17:25:09;15.30;67.20
41290;DHT22;36117;46.680;11.154;2022-11-15T17:27:35;15.30;67.30
41290;DHT22;36117;46.680;11.154;2022-11-15T17:30:01;15.40;67.20
41290;DHT22;36117;46.680;11.154;2022-11-15T17:32:27;15.40;67.10
41290;DHT22;36117;46.680;11.154;2022-11-15T17:34:52;15.40;66.90
41290;DHT22;36117;46.680;11.154;2022-11-15T17:37:18;15.40;66.70
41290;DHT22;36117;46.680;11.154;2022-11-15T17:39:44;15.20;67.00
41290;DHT22;36117;46.680;11.154;2022-11-15T17:42:10;15.20;67.30
41290;DHT22;36117;46.680;11.154;2022-11-15T17:44:35;15.10;67.00
41290;DHT22;36117;46.680;11.154;2022-11-15T17:47:01;15.00;67.20